createdAt,value
2023-02-16T00:01:22.640Z,24.60
2023-02-16T00:03:53.183Z,25.80
2023-02-16T00:06:22.500Z,25.67
2023-02-16T00:08:53.004Z,24.83
2023-02-16T00:11:43.569Z,26.80
2023-02-16T00:14:15.685Z,24.57
2023-02-16T00:16:44.853Z,25.23
2023-02-16T00:19:18.933Z,25.07
2023-02-16T00:21:47.953Z,25.57
2023-02-16T00:24:17.660Z,26.10
2023-02-16T00:26:47.492Z,26.57
2023-02-16T00:29:22.047Z,24.43
2023-02-16T00:31:51.384Z,25.53
2023-02-16T00:34:30.657Z,26.07
2023-02-16T00:37:01.296Z,25.27
2023-02-16T00:39:30.648Z,25.30
2023-02-16T00:42:03.956Z,24.33
2023-02-16T00:44:37.100Z,26.40
2023-02-16T00:47:25.771Z,24.77
2023-02-16T00:49:55.901Z,25.10
2023-02-16T00:52:32.132Z,25.57
2023-02-16T00:55:02.664Z,26.40
2023-02-16T00:57:35.100Z,24.57
2023-02-16T01:00:08.826Z,25.37
2023-02-16T01:02:37.853Z,24.80
2023-02-16T01:05:07.534Z,24.77
2023-02-16T01:07:54.224Z,25.50
2023-02-16T01:10:41.709Z,25.03
2023-02-16T01:13:15.834Z,25.50
2023-02-16T01:15:47.043Z,25.80
2023-02-16T01:18:18.670Z,26.03
2023-02-16T01:20:50.158Z,26.47
2023-02-16T01:23:19.334Z,25.57
2023-02-16T01:25:48.501Z,25.60
2023-02-16T01:28:22.249Z,26.27
2023-02-16T01:30:53.707Z,26.47
2023-02-16T01:33:23.025Z,25.70
2023-02-16T01:35:53.488Z,24.77
2023-02-16T01:38:25.350Z,25.87
2023-02-16T01:41:03.499Z,25.60
2023-02-16T01:43:47.648Z,26.80
2023-02-16T01:46:22.559Z,26.90
2023-02-16T01:48:51.831Z,26.13
2023-02-16T01:51:25.251Z,26.47
2023-02-16T01:53:58.082Z,26.27
2023-02-16T01:56:41.036Z,26.13
2023-02-16T01:59:17.129Z,27.60
2023-02-16T02:01:54.650Z,24.80
2023-02-16T02:04:53.260Z,25.60
2023-02-16T02:07:28.790Z,26.43
2023-02-16T02:10:03.985Z,27.43
2023-02-16T02:12:40.859Z,27.43
2023-02-16T02:15:11.551Z,25.93
2023-02-16T02:17:41.903Z,27.13
2023-02-16T02:20:17.257Z,25.73
2023-02-16T02:23:29.866Z,27.33
2023-02-16T02:26:28.818Z,25.30
2023-02-16T02:29:08.998Z,26.53
2023-02-16T02:31:49.887Z,26.07
2023-02-16T02:34:29.051Z,25.17
2023-02-16T02:37:08.190Z,27.07
2023-02-16T02:39:46.575Z,27.13
2023-02-16T02:42:23.128Z,27.90
2023-02-16T02:45:02.879Z,26.50
2023-02-16T02:47:39.605Z,28.10
2023-02-16T02:51:07.477Z,26.57
2023-02-16T02:53:42.328Z,26.10
2023-02-16T02:56:31.392Z,26.87
2023-02-16T02:59:23.410Z,25.73
2023-02-16T03:01:58.735Z,27.03
2023-02-16T03:04:31.422Z,26.83
2023-02-16T03:07:02.868Z,26.13
2023-02-16T03:09:32.029Z,27.13
2023-02-16T03:12:19.349Z,26.87
2023-02-16T03:14:52.136Z,27.07
2023-02-16T03:17:44.279Z,27.90
2023-02-16T03:20:34.406Z,26.77
2023-02-16T03:23:23.967Z,25.63
2023-02-16T03:26:11.326Z,27.00
2023-02-16T03:29:01.892Z,26.80
2023-02-16T03:31:34.677Z,27.03
2023-02-16T03:34:05.285Z,27.23
2023-02-16T03:36:37.964Z,27.93
2023-02-16T03:39:08.229Z,26.87
2023-02-16T03:41:41.625Z,27.47
2023-02-16T03:44:11.038Z,26.20
2023-02-16T03:46:40.179Z,27.13
2023-02-16T03:49:10.474Z,27.57
2023-02-16T03:51:39.559Z,28.23
2023-02-16T03:54:08.547Z,27.27
2023-02-16T03:56:37.696Z,28.07
2023-02-16T03:59:06.590Z,28.63
2023-02-16T04:01:35.527Z,27.43
2023-02-16T04:04:04.643Z,28.50
2023-02-16T04:06:35.058Z,28.37
2023-02-16T04:09:04.647Z,27.90
2023-02-16T04:11:51.137Z,26.40
2023-02-16T04:14:20.192Z,28.33
2023-02-16T04:16:49.499Z,27.77
2023-02-16T04:19:18.922Z,27.43
2023-02-16T04:21:49.385Z,28.77
2023-02-16T04:24:18.342Z,29.37
2023-02-16T04:26:49.500Z,28.10
2023-02-16T04:29:18.578Z,29.20
2023-02-16T04:31:48.016Z,28.40
2023-02-16T04:34:17.223Z,27.67
2023-02-16T04:36:46.185Z,28.10
2023-02-16T04:39:16.786Z,28.87
2023-02-16T04:41:45.763Z,28.17
2023-02-16T04:44:14.930Z,27.20
2023-02-16T04:46:44.020Z,28.70
2023-02-16T04:49:13.188Z,28.80
2023-02-16T04:51:42.294Z,28.20
2023-02-16T04:54:11.270Z,27.03
2023-02-16T04:56:44.414Z,28.40
2023-02-16T04:59:13.701Z,29.17
2023-02-16T05:01:43.436Z,29.73
2023-02-16T05:04:12.907Z,28.10
2023-02-16T05:06:42.305Z,29.80
2023-02-16T05:09:11.904Z,28.27
2023-02-16T05:11:59.681Z,27.33
2023-02-16T05:14:43.295Z,28.50
2023-02-16T05:17:14.468Z,29.13
2023-02-16T05:19:45.182Z,28.87
2023-02-16T05:22:15.077Z,31.60
2023-02-16T05:24:45.174Z,28.73
2023-02-16T05:27:17.080Z,28.63
2023-02-16T05:29:46.155Z,29.47
2023-02-16T05:32:15.486Z,29.20
2023-02-16T05:34:45.539Z,28.27
2023-02-16T05:37:15.974Z,28.07
2023-02-16T05:39:45.455Z,27.97
2023-02-16T05:42:15.992Z,28.53
2023-02-16T05:44:44.976Z,28.33
2023-02-16T05:47:13.933Z,29.17
2023-02-16T05:49:42.900Z,29.83
2023-02-16T05:52:11.657Z,29.20
2023-02-16T05:54:40.587Z,28.87
2023-02-16T05:57:11.278Z,28.70
2023-02-16T05:59:41.690Z,29.30
2023-02-16T06:02:10.681Z,29.00
2023-02-16T06:04:40.398Z,30.07
2023-02-16T06:07:09.828Z,30.23
2023-02-16T06:09:38.909Z,30.30
2023-02-16T06:12:08.272Z,29.50
2023-02-16T06:14:37.333Z,29.63
2023-02-16T06:17:07.825Z,29.37
2023-02-16T06:19:37.121Z,29.40
2023-02-16T06:22:06.191Z,30.77
2023-02-16T06:24:35.378Z,29.13
2023-02-16T06:27:04.430Z,29.43
2023-02-16T06:29:33.247Z,29.60
2023-02-16T06:32:02.288Z,30.27
2023-02-16T06:34:32.702Z,29.27
2023-02-16T06:37:01.657Z,30.20
2023-02-16T06:39:30.631Z,30.20
2023-02-16T06:41:59.540Z,29.73
2023-02-16T06:44:28.680Z,29.80
2023-02-16T06:46:58.188Z,31.13
2023-02-16T06:49:27.873Z,29.87
2023-02-16T06:51:58.510Z,29.53
2023-02-16T06:54:27.579Z,30.60
2023-02-16T06:56:56.702Z,29.53
2023-02-16T06:59:26.562Z,32.77
2023-02-16T07:01:55.655Z,30.37
2023-02-16T07:04:24.706Z,29.17
2023-02-16T07:06:53.842Z,29.60
2023-02-16T07:09:24.249Z,29.03
2023-02-16T07:11:53.413Z,29.53
2023-02-16T07:14:22.755Z,30.33
2023-02-16T07:16:51.824Z,31.00
2023-02-16T07:19:20.881Z,29.77
2023-02-16T07:21:50.386Z,28.90
2023-02-16T07:24:19.437Z,29.93
2023-02-16T07:26:49.765Z,30.03
2023-02-16T07:29:19.311Z,30.20
2023-02-16T07:31:48.699Z,29.87
2023-02-16T07:34:20.787Z,29.43
2023-02-16T07:36:49.958Z,29.23
2023-02-16T07:39:19.524Z,29.90
2023-02-16T07:41:50.008Z,29.93
2023-02-16T07:44:20.445Z,30.17
2023-02-16T07:46:49.592Z,29.93
2023-02-16T07:49:18.973Z,30.33
2023-02-16T07:51:48.110Z,30.33
2023-02-16T07:54:17.514Z,30.00
2023-02-16T07:56:47.000Z,29.60
2023-02-16T07:59:17.706Z,30.87
2023-02-16T08:01:46.728Z,28.53
2023-02-16T08:04:15.920Z,29.33
2023-02-16T08:06:45.952Z,30.40
2023-02-16T08:09:14.976Z,30.27
2023-02-16T08:11:44.043Z,29.87
2023-02-16T08:14:13.089Z,28.10
2023-02-16T08:16:43.600Z,28.27
2023-02-16T08:19:13.998Z,27.97
2023-02-16T08:21:47.314Z,29.07
2023-02-16T08:24:16.714Z,28.67
2023-02-16T08:26:49.692Z,29.23
2023-02-16T08:29:19.887Z,28.27
2023-02-16T08:31:51.527Z,28.47
2023-02-16T08:34:22.857Z,29.23
2023-02-16T08:36:56.314Z,28.13
2023-02-16T08:39:27.315Z,27.70
2023-02-16T08:41:56.535Z,27.37
2023-02-16T08:44:26.235Z,28.23
2023-02-16T08:46:59.173Z,27.73
2023-02-16T08:49:28.743Z,28.43
2023-02-16T08:52:01.409Z,27.47
2023-02-16T08:54:33.268Z,28.77
2023-02-16T08:57:03.280Z,27.97
2023-02-16T08:59:34.121Z,28.53
2023-02-16T09:02:05.040Z,28.33
2023-02-16T09:04:33.965Z,28.73
2023-02-16T09:07:02.929Z,28.33
2023-02-16T09:09:32.150Z,29.27
2023-02-16T09:12:01.185Z,28.17
2023-02-16T09:14:30.259Z,27.70
2023-02-16T09:16:59.542Z,28.10
2023-02-16T09:19:30.170Z,29.63
2023-02-16T09:21:59.349Z,26.63
2023-02-16T09:24:28.590Z,29.07
2023-02-16T09:26:57.606Z,28.47
2023-02-16T09:29:26.606Z,28.93
2023-02-16T09:31:55.809Z,27.23
2023-02-16T09:34:26.239Z,28.37
2023-02-16T09:36:58.607Z,28.60
2023-02-16T09:39:28.709Z,27.60
2023-02-16T09:42:19.995Z,28.80
2023-02-16T09:44:55.617Z,27.27
2023-02-16T09:47:29.514Z,28.27
2023-02-16T09:49:59.523Z,27.57
2023-02-16T09:52:37.051Z,28.20
2023-02-16T09:55:09.430Z,27.47
2023-02-16T09:57:57.904Z,26.27
2023-02-16T10:00:37.260Z,26.57
2023-02-16T10:03:21.060Z,26.27
2023-02-16T10:05:57.198Z,25.53
2023-02-16T10:08:31.527Z,25.13
2023-02-16T10:11:06.492Z,25.93
2023-02-16T10:13:41.634Z,26.07
2023-02-16T10:16:15.708Z,24.60
2023-02-16T10:18:50.900Z,23.90
2023-02-16T10:21:26.062Z,23.97
2023-02-16T10:24:01.062Z,23.83
2023-02-16T10:26:35.305Z,24.53
2023-02-16T10:29:08.154Z,24.03
2023-02-16T10:31:42.732Z,23.93
2023-02-16T10:34:23.178Z,22.50
2023-02-16T10:37:19.116Z,24.00
2023-02-16T10:39:56.644Z,23.27
2023-02-16T10:42:32.971Z,23.43
2023-02-16T10:45:16.162Z,23.27
2023-02-16T10:47:47.170Z,23.17
2023-02-16T10:50:23.980Z,22.37
2023-02-16T10:52:57.209Z,22.23
2023-02-16T10:55:27.765Z,22.90
2023-02-16T10:58:00.034Z,22.83
2023-02-16T11:00:51.801Z,22.20
2023-02-16T11:03:27.222Z,22.53
2023-02-16T11:05:56.356Z,22.20
2023-02-16T11:08:29.205Z,24.33
2023-02-16T11:11:10.584Z,23.83
2023-02-16T11:13:39.811Z,22.73
2023-02-16T11:16:13.902Z,23.20
2023-02-16T11:18:46.933Z,21.37
2023-02-16T11:21:16.669Z,21.13
2023-02-16T11:23:59.684Z,23.23
2023-02-16T11:26:30.398Z,21.03
2023-02-16T11:29:18.794Z,20.50
2023-02-16T11:31:48.308Z,20.37
2023-02-16T11:34:32.276Z,20.23
2023-02-16T11:37:05.075Z,19.73
2023-02-16T11:39:38.218Z,19.60
2023-02-16T11:42:19.661Z,19.67
2023-02-16T11:44:54.064Z,19.57
2023-02-16T11:47:26.357Z,20.47
2023-02-16T11:50:19.917Z,21.43
2023-02-16T11:52:50.135Z,19.87
2023-02-16T11:55:27.270Z,20.23
2023-02-16T11:58:15.322Z,20.53
2023-02-16T12:00:53.687Z,20.87
2023-02-16T12:03:37.202Z,20.33
2023-02-16T12:06:26.597Z,21.20
2023-02-16T12:09:08.443Z,20.70
2023-02-16T12:11:48.393Z,20.13
2023-02-16T12:14:29.177Z,20.67
2023-02-16T12:17:05.095Z,21.00
2023-02-16T12:19:42.178Z,20.50
2023-02-16T12:22:23.568Z,21.13
2023-02-16T12:25:02.903Z,19.27
2023-02-16T12:27:38.289Z,19.50
2023-02-16T12:30:28.313Z,20.20
2023-02-16T12:33:13.032Z,20.43
2023-02-16T12:36:24.278Z,20.37
2023-02-16T12:39:02.139Z,19.67
2023-02-16T12:41:44.258Z,19.47
2023-02-16T12:44:18.912Z,21.17
2023-02-16T12:46:56.906Z,21.23
2023-02-16T12:49:29.506Z,20.60
2023-02-16T12:52:08.456Z,21.33
2023-02-16T12:54:41.588Z,21.27
2023-02-16T12:57:14.326Z,20.93
2023-02-16T12:59:48.838Z,20.40
2023-02-16T13:02:24.503Z,21.57
2023-02-16T13:05:00.780Z,21.93
2023-02-16T13:07:33.749Z,21.03
2023-02-16T13:10:08.585Z,20.23
2023-02-16T13:12:41.367Z,21.30
2023-02-16T13:15:16.294Z,21.80
2023-02-16T13:17:50.865Z,21.50
2023-02-16T13:20:23.066Z,22.00
2023-02-16T13:23:14.158Z,20.40
2023-02-16T13:26:01.109Z,21.33
2023-02-16T13:29:03.133Z,22.50
2023-02-16T13:31:47.346Z,22.60
2023-02-16T13:34:43.941Z,22.70
2023-02-16T13:37:31.778Z,22.90
2023-02-16T13:40:35.734Z,23.33
2023-02-16T13:43:30.539Z,24.30
2023-02-16T13:46:01.512Z,23.43
2023-02-16T13:48:36.763Z,24.03
2023-02-16T13:51:13.841Z,25.37
2023-02-16T13:53:44.989Z,25.30
2023-02-16T13:56:22.510Z,25.80
2023-02-16T13:58:53.123Z,25.77
2023-02-16T14:01:41.880Z,25.97
2023-02-16T14:04:55.359Z,25.47
2023-02-16T14:07:38.385Z,27.40
2023-02-16T14:10:13.720Z,26.77
2023-02-16T14:12:43.114Z,26.23
2023-02-16T14:15:20.460Z,25.10
2023-02-16T14:17:49.601Z,27.53
2023-02-16T14:20:31.164Z,26.00
2023-02-16T14:23:01.941Z,27.83
2023-02-16T14:25:37.701Z,26.90
2023-02-16T14:28:23.149Z,27.27
2023-02-16T14:30:55.769Z,28.07
2023-02-16T14:33:33.121Z,28.23
2023-02-16T14:36:14.322Z,27.90
2023-02-16T14:38:48.354Z,27.67
2023-02-16T14:41:28.157Z,27.70
2023-02-16T14:44:24.770Z,27.53
2023-02-16T14:47:04.929Z,26.50
2023-02-16T14:50:13.176Z,27.90
2023-02-16T14:53:17.226Z,28.20
2023-02-16T14:56:08.821Z,28.33
2023-02-16T14:58:45.923Z,27.93
2023-02-16T15:01:17.794Z,27.47
2023-02-16T15:03:48.811Z,25.90
2023-02-16T15:06:31.718Z,28.43
2023-02-16T15:09:06.385Z,27.37
2023-02-16T15:12:00.214Z,26.43
2023-02-16T15:14:32.589Z,27.57
2023-02-16T15:17:01.920Z,27.43
2023-02-16T15:19:32.711Z,27.13
2023-02-16T15:22:10.307Z,27.47
2023-02-16T15:24:39.676Z,28.43
2023-02-16T15:27:21.876Z,26.47
2023-02-16T15:30:05.604Z,28.03
2023-02-16T15:32:34.875Z,28.17
2023-02-16T15:35:13.456Z,27.30
2023-02-16T15:37:42.523Z,26.90
2023-02-16T15:40:26.529Z,27.33
2023-02-16T15:43:04.517Z,27.37
2023-02-16T15:45:37.802Z,28.47
2023-02-16T15:48:22.105Z,28.67
2023-02-16T15:50:53.445Z,28.23
2023-02-16T15:53:34.811Z,27.77
2023-02-16T15:56:07.568Z,28.27
2023-02-16T15:58:37.966Z,27.43
2023-02-16T16:01:07.325Z,27.23
2023-02-16T16:03:36.383Z,28.10
2023-02-16T16:06:07.318Z,28.87
2023-02-16T16:08:37.157Z,27.33
2023-02-16T16:11:06.736Z,27.00
2023-02-16T16:13:39.042Z,27.83
2023-02-16T16:16:09.925Z,27.70
2023-02-16T16:18:43.222Z,28.53
2023-02-16T16:21:23.962Z,27.73
2023-02-16T16:23:56.640Z,27.17
2023-02-16T16:26:26.350Z,29.13
2023-02-16T16:28:56.924Z,27.90
2023-02-16T16:31:41.670Z,27.80
2023-02-16T16:34:30.932Z,28.60
2023-02-16T16:37:02.524Z,27.13
2023-02-16T16:39:32.699Z,28.87
2023-02-16T16:42:15.669Z,28.40
2023-02-16T16:44:54.529Z,28.97
2023-02-16T16:47:27.266Z,28.63
2023-02-16T16:50:00.200Z,28.20
2023-02-16T16:52:35.901Z,28.70
2023-02-16T16:55:23.176Z,28.03
2023-02-16T16:57:53.972Z,29.23
2023-02-16T17:00:27.296Z,28.60
2023-02-16T17:02:56.539Z,28.27
2023-02-16T17:05:25.909Z,29.70
2023-02-16T17:07:54.916Z,29.23
2023-02-16T17:10:24.515Z,28.07
2023-02-16T17:12:57.461Z,29.03
2023-02-16T17:15:41.154Z,29.23
2023-02-16T17:18:15.806Z,30.17
2023-02-16T17:20:45.431Z,30.23
2023-02-16T17:23:17.098Z,28.90
2023-02-16T17:25:47.589Z,28.20
2023-02-16T17:28:19.658Z,29.63
2023-02-16T17:30:50.623Z,29.03
2023-02-16T17:33:20.106Z,28.97
2023-02-16T17:35:49.209Z,28.83
2023-02-16T17:38:21.606Z,28.47
2023-02-16T17:40:52.556Z,27.43
2023-02-16T17:43:23.269Z,28.60
2023-02-16T17:45:56.387Z,27.33
2023-02-16T17:48:29.219Z,29.60
2023-02-16T17:50:59.414Z,29.30
2023-02-16T17:53:29.902Z,27.27
2023-02-16T17:55:59.323Z,28.30
2023-02-16T17:58:28.269Z,27.17
2023-02-16T18:00:58.768Z,27.40
2023-02-16T18:03:30.894Z,27.53
2023-02-16T18:06:00.038Z,28.23
2023-02-16T18:08:29.094Z,28.33
2023-02-16T18:11:02.128Z,27.80
2023-02-16T18:13:31.696Z,28.10
2023-02-16T18:16:03.809Z,28.50
2023-02-16T18:18:34.813Z,28.70
2023-02-16T18:21:04.403Z,28.23
2023-02-16T18:23:33.635Z,29.33
2023-02-16T18:26:05.562Z,28.47
2023-02-16T18:28:35.948Z,29.17
2023-02-16T18:31:08.419Z,29.27
2023-02-16T18:33:37.500Z,28.33
2023-02-16T18:36:07.615Z,29.13
2023-02-16T18:38:36.845Z,26.50
2023-02-16T18:41:06.136Z,28.33
2023-02-16T18:43:35.752Z,26.23
2023-02-16T18:46:08.294Z,27.47
2023-02-16T18:48:37.559Z,28.43
2023-02-16T18:51:07.397Z,26.63
2023-02-16T18:53:38.247Z,27.20
2023-02-16T18:56:08.581Z,27.60
2023-02-16T18:58:38.196Z,27.93
2023-02-16T19:01:15.195Z,26.07
2023-02-16T19:03:44.170Z,27.73
2023-02-16T19:06:13.173Z,27.93
2023-02-16T19:08:43.036Z,29.00
2023-02-16T19:11:19.469Z,26.90
2023-02-16T19:13:48.602Z,26.70
2023-02-16T19:16:18.988Z,26.60
2023-02-16T19:18:47.981Z,26.23
2023-02-16T19:21:16.984Z,27.27
2023-02-16T19:23:46.805Z,26.27
2023-02-16T19:26:18.842Z,27.17
2023-02-16T19:28:48.242Z,28.27
2023-02-16T19:31:20.670Z,28.97
2023-02-16T19:33:49.977Z,27.67
2023-02-16T19:36:20.144Z,28.33
2023-02-16T19:38:49.559Z,27.03
2023-02-16T19:41:21.450Z,28.33
2023-02-16T19:43:50.945Z,26.73
2023-02-16T19:46:21.601Z,27.67
2023-02-16T19:48:50.708Z,27.97
2023-02-16T19:51:19.841Z,27.73
2023-02-16T19:53:49.286Z,28.27
2023-02-16T19:56:21.733Z,28.10
2023-02-16T19:58:52.013Z,29.10
2023-02-16T20:01:24.219Z,28.33
2023-02-16T20:03:54.353Z,27.53
2023-02-16T20:06:26.262Z,28.50
2023-02-16T20:08:57.674Z,27.17
2023-02-16T20:11:28.821Z,27.97
2023-02-16T20:13:58.273Z,27.57
2023-02-16T20:16:29.696Z,27.03
2023-02-16T20:18:59.516Z,26.87
2023-02-16T20:21:29.731Z,27.97
2023-02-16T20:24:00.419Z,27.87
2023-02-16T20:26:34.020Z,26.30
2023-02-16T20:29:03.885Z,27.53
2023-02-16T20:31:36.366Z,28.40
2023-02-16T20:34:06.723Z,29.80
2023-02-16T20:36:35.848Z,29.30
2023-02-16T20:39:06.361Z,28.57
2023-02-16T20:41:35.835Z,28.63
2023-02-16T20:44:05.565Z,28.03
2023-02-16T20:46:36.200Z,27.67
2023-02-16T20:49:05.356Z,27.63
2023-02-16T20:51:35.062Z,28.07
2023-02-16T20:54:04.766Z,27.77
2023-02-16T20:56:33.700Z,28.23
2023-02-16T20:59:02.882Z,27.93
2023-02-16T21:01:37.193Z,27.70
2023-02-16T21:04:09.283Z,26.67
2023-02-16T21:06:38.320Z,28.40
2023-02-16T21:09:09.113Z,28.73
2023-02-16T21:11:39.440Z,27.50
2023-02-16T21:14:09.797Z,27.33
2023-02-16T21:16:40.891Z,27.70
2023-02-16T21:19:22.239Z,26.90
2023-02-16T21:21:52.092Z,26.80
2023-02-16T21:24:21.369Z,27.30
2023-02-16T21:26:50.311Z,26.67
2023-02-16T21:29:19.248Z,27.17
2023-02-16T21:31:48.225Z,26.47
2023-02-16T21:34:18.404Z,26.20
2023-02-16T21:36:47.347Z,27.47
2023-02-16T21:39:16.621Z,27.30
2023-02-16T21:41:44.605Z,26.40
2023-02-16T21:44:15.635Z,27.80
2023-02-16T21:46:45.855Z,26.50
2023-02-16T21:49:15.817Z,26.67
2023-02-16T21:51:47.454Z,26.67
2023-02-16T21:54:39.034Z,27.13
2023-02-16T21:57:07.026Z,27.77
2023-02-16T21:59:36.370Z,26.37
2023-02-16T22:02:05.175Z,27.17
2023-02-16T22:04:34.170Z,26.80
2023-02-16T22:07:04.342Z,26.27
2023-02-16T22:09:33.152Z,27.97
2023-02-16T22:12:01.962Z,27.27
2023-02-16T22:14:31.880Z,25.77
2023-02-16T22:17:02.027Z,27.90
2023-02-16T22:19:30.979Z,26.30
2023-02-16T22:21:59.904Z,27.30
2023-02-16T22:24:30.180Z,26.40
2023-02-16T22:26:59.087Z,26.17
2023-02-16T22:29:28.230Z,26.63
2023-02-16T22:31:57.336Z,27.60
2023-02-16T22:34:26.385Z,27.33
2023-02-16T22:36:55.371Z,26.33
2023-02-16T22:39:24.461Z,26.93
2023-02-16T22:41:54.602Z,25.50
2023-02-16T22:44:23.869Z,27.07
2023-02-16T22:46:54.523Z,26.60
2023-02-16T22:49:23.652Z,26.97
2023-02-16T22:51:52.920Z,27.43
2023-02-16T22:54:23.247Z,28.70
2023-02-16T22:56:53.728Z,28.20
2023-02-16T22:59:22.827Z,27.33
2023-02-16T23:01:52.015Z,27.13
2023-02-16T23:04:21.154Z,27.67
2023-02-16T23:06:50.185Z,27.47
2023-02-16T23:09:21.388Z,28.63
2023-02-16T23:11:51.046Z,26.10
2023-02-16T23:14:21.456Z,26.20
2023-02-16T23:16:52.158Z,27.80
2023-02-16T23:19:23.164Z,26.47
2023-02-16T23:21:52.822Z,27.57
2023-02-16T23:24:23.518Z,27.23
2023-02-16T23:26:53.083Z,27.73
2023-02-16T23:29:23.433Z,27.87
2023-02-16T23:31:53.194Z,28.33
2023-02-16T23:34:22.336Z,27.40
2023-02-16T23:36:51.158Z,27.87
2023-02-16T23:39:20.033Z,27.30
2023-02-16T23:41:48.840Z,28.00
2023-02-16T23:44:17.644Z,26.60
2023-02-16T23:46:47.995Z,27.43
2023-02-16T23:49:17.001Z,27.87
2023-02-16T23:51:45.957Z,27.37
2023-02-16T23:54:14.971Z,28.30
2023-02-16T23:56:43.841Z,27.87
2023-02-16T23:59:12.889Z,27.67
